KAFJ

Details ICAO KAFJ
Name WASHINGTON CO
Region United States
Timezone America/New_York (UTC-5.0)
Plans Departing 22
Arriving 8
Stats Elevation 1,184 ft / 361 m (AMSL)
Location 40.136482° -80.290190°
Runways 1
Magnetic Variation 9.038° W
Sunrise 2017-12-18 12:39:45 UTC / 2017-12-18 07:39:45 Local
Sunset 2017-12-18 21:58:43 UTC / 2017-12-18 16:58:43 Local
Advertisement - Login to hide

Runways

ID Width Length Bearing (true) Bearing (mag) Surface Threshold Offset Overrun Length
09 75 ft / 23 m 4,989 ft / 1,521 m 84.99° 94.03° Asphalt 0 ft / 0 m 0 ft / 0 m
27 75 ft / 23 m 4,989 ft / 1,521 m 265.00° 274.04° Asphalt 0 ft / 0 m 0 ft / 0 m

Map

Weather


0- 5 10 15 20 25 30 35+ Temperature / ° C

Clouds and Precipitation
Forecast for 2017-12-18 12:00 UTC. Updated 3 minutes ago

Ground ~20,000 ft ~40,000 ft Winds

METAR

KAFJ 181056Z AUTO 21004KT 10SM OVC014 03/01 A3010 RMK AO2 SLP200 T00330011

TAF

Not found

Frequencies

Recorded 118.42 MHz AWOS 3
Clearance 127.30 MHz CLNC DEL
Unicom 122.80 MHz CTAF/UNICOM
Approach 119.35 MHz PITTSBURGH APP/DEP
Warning: Do not use this data for real-world aviation or navigation. No guarantee of current accuracy is given.